Aviation Digital Data Service (ADDS)

Output produced by METARs form (0307 UTC 22 October 2014)
found at http://aviationweather.gov/adds/metars/
 
KHKY 212336Z 2200/2224 33008KT P6SM SKC 
     FM221900 33010G17KT P6SM SKC